No particular awareness of the weather is required.    There are no Weather-warnings


Meteo18 Weather Cam more information Meteo18 Weather Cam


Thunder radar more information blitzortung!


Rain radar more information rain snow radar


Visit our other weather sites:

Template documentation
and downloads

And another site



Weather Underground History page Text

Daily Summary for June 14, 2017 Units:  Both    English   Metric
« Previous Day
Next Day »
Daily Weekly Monthly Yearly Custom
  High: Low: Average:
Temperature: TemperatureC °F /  -17.8 °C 16.8 °F /  -8.4 °C 22.3 °F /  -5.4 °C
Dew Point: DewpointC °F /  -17.8 °C 13.1 °F /  -10.5 °C 16.8 °F /  -8.4 °C
Humidity: Humidity % 58 % 71 %
Wind Speed: WindSpeedKMH mph /  0 km/h - 3.4 mph /  5.5 km/h
Wind Gust: WindSpeedGustKMH mph /  0 km/h - -
Wind:- - East
Pressure: PressurehPa in /  0 hPa 1014.4 in /  34347.6 hPa -
Precipitation: 0.3 in /  7.62 mm    
Historical Graphs
 
 
Tabular Data for June 14, 2017
Time Temperature Dew Point Pressure Wind Wind Speed Wind Gust Humidity Rainfall Rate (Hourly)
TemperatureC °F /  -17.8 °C DewpointC °F /  -17.8 °C PressurehPa in /  0 hPa Calm     Humidity % HourlyPrecipMM in /  0 mm
00:02 18.4 °F /  -7.6 °C 14.1 °F /  -9.9 °C 1018.2 in /  34476.3 hPa NE 1.6 mph /  2.6 km/h 19.3 mph /  31.1 km/h 76 % 0.0 in /  0 mm
00:12 18.1 °F /  -7.7 °C 14.2 °F /  -9.9 °C 1017.8 in /  34462.7 hPa NE 6.4 mph /  10.3 km/h 19.3 mph /  31.1 km/h 78 % 0.3 in /  7.62 mm
00:17 17.9 °F /  -7.8 °C 14.2 °F /  -9.9 °C 1017.8 in /  34462.7 hPa ENE 9.7 mph /  15.6 km/h 19.3 mph /  31.1 km/h 79 % 0.3 in /  7.62 mm
00:22 17.8 °F /  -7.9 °C 14.1 °F /  -9.9 °C 1017.8 in /  34462.7 hPa NE 4.8 mph /  7.7 km/h 14.5 mph /  23.3 km/h 79 % 0.3 in /  7.62 mm
00:27 17.8 °F /  -7.9 °C 14.1 °F /  -9.9 °C 1018.2 in /  34476.3 hPa Calm   12.9 mph /  20.8 km/h 79 % 0.3 in /  7.62 mm
00:32 17.9 °F /  -7.8 °C 14.0 °F /  -10 °C 1017.8 in /  34462.7 hPa NE 6.4 mph /  10.3 km/h 12.9 mph /  20.8 km/h 78 % 0.3 in /  7.62 mm
00:37 17.9 °F /  -7.8 °C 14.0 °F /  -10 °C 1017.8 in /  34462.7 hPa East 3.2 mph /  5.1 km/h 12.9 mph /  20.8 km/h 78 % 0.3 in /  7.62 mm
00:42 17.8 °F /  -7.9 °C 14.1 °F /  -9.9 °C 1017.5 in /  34452.6 hPa ENE 4.8 mph /  7.7 km/h 12.9 mph /  20.8 km/h 79 % 0.3 in /  7.62 mm
00:52 17.7 °F /  -7.9 °C 14.2 °F /  -9.9 °C 1017.2 in /  34442.4 hPa NE 3.2 mph /  5.1 km/h 11.3 mph /  18.2 km/h 80 % 0.3 in /  7.62 mm
00:57 17.6 °F /  -8 °C 14.1 °F /  -9.9 °C 1017.2 in /  34442.4 hPa NE 8.0 mph /  12.9 km/h 11.3 mph /  18.2 km/h 80 % 0.3 in /  7.62 mm
01:02 17.6 °F /  -8 °C 13.9 °F /  -10.1 °C 1017.2 in /  34442.4 hPa Calm   14.5 mph /  23.3 km/h 79 % 0.3 in /  7.62 mm
01:07 17.7 °F /  -7.9 °C 14.0 °F /  -10 °C 1017.2 in /  34442.4 hPa NW 3.2 mph /  5.1 km/h 14.5 mph /  23.3 km/h 79 % 0.0 in /  0 mm
01:12 17.7 °F /  -7.9 °C 13.8 °F /  -10.1 °C 1017.5 in /  34452.6 hPa NNW 3.2 mph /  5.1 km/h 12.9 mph /  20.8 km/h 78 % 0.0 in /  0 mm
01:17 17.7 °F /  -7.9 °C 13.6 °F /  -10.2 °C 1017.5 in /  34452.6 hPa Calm   8.0 mph /  12.9 km/h 77 % 0.0 in /  0 mm
01:22 17.7 °F /  -7.9 °C 13.6 °F /  -10.2 °C 1017.5 in /  34452.6 hPa NNW 3.2 mph /  5.1 km/h 4.8 mph /  7.7 km/h 77 % 0.0 in /  0 mm
01:27 17.6 °F /  -8 °C 13.5 °F /  -10.3 °C 1017.5 in /  34452.6 hPa NE 1.6 mph /  2.6 km/h 4.8 mph /  7.7 km/h 77 % 0.0 in /  0 mm
01:32 17.5 °F /  -8.1 °C 13.4 °F /  -10.3 °C 1017.2 in /  34442.4 hPa NE 4.8 mph /  7.7 km/h 9.7 mph /  15.6 km/h 77 % 0.0 in /  0 mm
01:37 17.3 °F /  -8.2 °C 13.4 °F /  -10.3 °C 1017.2 in /  34442.4 hPa ENE 4.8 mph /  7.7 km/h 11.3 mph /  18.2 km/h 78 % 0.0 in /  0 mm
01:42 17.3 °F /  -8.2 °C 13.4 °F /  -10.3 °C 1017.2 in /  34442.4 hPa NNE 6.4 mph /  10.3 km/h 11.3 mph /  18.2 km/h 78 % 0.0 in /  0 mm
01:52 17.5 °F /  -8.1 °C 13.2 °F /  -10.4 °C 1017.5 in /  34452.6 hPa NNW 9.7 mph /  15.6 km/h 12.9 mph /  20.8 km/h 76 % 0.0 in /  0 mm
01:57 17.6 °F /  -8 °C 13.3 °F /  -10.4 °C 1017.5 in /  34452.6 hPa North 6.4 mph /  10.3 km/h 12.9 mph /  20.8 km/h 76 % 0.0 in /  0 mm
02:02 17.7 °F /  -7.9 °C 13.2 °F /  -10.4 °C 1017.2 in /  34442.4 hPa NNE 6.4 mph /  10.3 km/h 12.9 mph /  20.8 km/h 75 % 0.0 in /  0 mm
02:07 17.7 °F /  -7.9 °C 13.2 °F /  -10.4 °C 1017.2 in /  34442.4 hPa NNE 3.2 mph /  5.1 km/h 12.9 mph /  20.8 km/h 75 % 0.0 in /  0 mm
02:12 17.7 °F /  -7.9 °C 13.4 °F /  -10.3 °C 1017.2 in /  34442.4 hPa North 4.8 mph /  7.7 km/h 11.3 mph /  18.2 km/h 76 % 0.0 in /  0 mm
02:17 17.6 °F /  -8 °C 13.3 °F /  -10.4 °C 1017.2 in /  34442.4 hPa NNE 11.3 mph /  18.2 km/h 12.9 mph /  20.8 km/h 76 % 0.0 in /  0 mm
02:22 17.7 °F /  -7.9 °C 13.4 °F /  -10.3 °C 1017.2 in /  34442.4 hPa Calm   12.9 mph /  20.8 km/h 76 % 0.0 in /  0 mm
02:32 17.7 °F /  -7.9 °C 13.2 °F /  -10.4 °C 1017.2 in /  34442.4 hPa North 1.6 mph /  2.6 km/h 12.9 mph /  20.8 km/h 75 % 0.0 in /  0 mm
02:37 17.8 °F /  -7.9 °C 13.1 °F /  -10.5 °C 1016.8 in /  34428.8 hPa NNE 1.6 mph /  2.6 km/h 8.0 mph /  12.9 km/h 74 % 0.0 in /  0 mm
02:42 17.9 °F /  -7.8 °C 13.2 °F /  -10.4 °C 1016.8 in /  34428.8 hPa NE 3.2 mph /  5.1 km/h 6.4 mph /  10.3 km/h 74 % 0.0 in /  0 mm
02:47 18.1 °F /  -7.7 °C 13.4 °F /  -10.3 °C 1016.8 in /  34428.8 hPa Calm   8.0 mph /  12.9 km/h 74 % 0.0 in /  0 mm
02:52 18.1 °F /  -7.7 °C 13.4 °F /  -10.3 °C 1016.8 in /  34428.8 hPa Calm   8.0 mph /  12.9 km/h 74 % 0.0 in /  0 mm
02:57 18.1 °F /  -7.7 °C 13.4 °F /  -10.3 °C 1016.8 in /  34428.8 hPa East 1.6 mph /  2.6 km/h 8.0 mph /  12.9 km/h 74 % 0.0 in /  0 mm
03:02 18.1 °F /  -7.7 °C 13.4 °F /  -10.3 °C 1016.5 in /  34418.7 hPa NE 4.8 mph /  7.7 km/h 4.8 mph /  7.7 km/h 74 % 0.0 in /  0 mm
03:12 18.1 °F /  -7.7 °C 13.4 °F /  -10.3 °C 1016.5 in /  34418.7 hPa NNE 3.2 mph /  5.1 km/h 6.4 mph /  10.3 km/h 74 % 0.0 in /  0 mm
03:17 17.9 °F /  -7.8 °C 13.4 °F /  -10.3 °C 1016.5 in /  34418.7 hPa Calm   6.4 mph /  10.3 km/h 75 % 0.0 in /  0 mm
03:22 17.7 °F /  -7.9 °C 13.2 °F /  -10.4 °C 1016.1 in /  34405.1 hPa Calm   6.4 mph /  10.3 km/h 75 % 0.0 in /  0 mm
03:32 17.6 °F /  -8 °C 13.1 °F /  -10.5 °C 1016.1 in /  34405.1 hPa Calm   1.6 mph /  2.6 km/h 75 % 0.0 in /  0 mm
03:37 17.4 °F /  -8.1 °C 13.1 °F /  -10.5 °C 1016.1 in /  34405.1 hPa NNE 3.2 mph /  5.1 km/h 3.2 mph /  5.1 km/h 76 % 0.0 in /  0 mm
03:42 17.5 °F /  -8.1 °C 13.2 °F /  -10.4 °C 1016.1 in /  34405.1 hPa Calm   6.4 mph /  10.3 km/h 76 % 0.0 in /  0 mm
03:47 17.4 °F /  -8.1 °C 13.1 °F /  -10.5 °C 1016.1 in /  34405.1 hPa NNW 1.6 mph /  2.6 km/h 6.4 mph /  10.3 km/h 76 % 0.0 in /  0 mm
03:52 17.3 °F /  -8.2 °C 13.2 °F /  -10.4 °C 1016.1 in /  34405.1 hPa North 3.2 mph /  5.1 km/h 6.4 mph /  10.3 km/h 77 % 0.0 in /  0 mm
03:57 17.1 °F /  -8.3 °C 13.2 °F /  -10.4 °C 1016.1 in /  34405.1 hPa Calm   6.4 mph /  10.3 km/h 78 % 0.0 in /  0 mm
04:02 16.9 °F /  -8.4 °C 13.2 °F /  -10.4 °C 1016.1 in /  34405.1 hPa NNW 1.6 mph /  2.6 km/h 4.8 mph /  7.7 km/h 79 % 0.0 in /  0 mm
04:07 16.9 °F /  -8.4 °C 13.2 °F /  -10.4 °C 1016.1 in /  34405.1 hPa Calm   4.8 mph /  7.7 km/h 79 % 0.0 in /  0 mm
04:12 16.9 °F /  -8.4 °C 13.2 °F /  -10.4 °C 1016.1 in /  34405.1 hPa Calm   4.8 mph /  7.7 km/h 79 % 0.0 in /  0 mm
04:17 16.9 °F /  -8.4 °C 13.2 °F /  -10.4 °C 1016.1 in /  34405.1 hPa NE 3.2 mph /  5.1 km/h 4.8 mph /  7.7 km/h 79 % 0.0 in /  0 mm
04:22 16.9 °F /  -8.4 °C 13.2 °F /  -10.4 °C 1016.1 in /  34405.1 hPa Calm   4.8 mph /  7.7 km/h 79 % 0.0 in /  0 mm
04:32 17.1 °F /  -8.3 °C 13.2 °F /  -10.4 °C 1016.1 in /  34405.1 hPa NE 3.2 mph /  5.1 km/h 4.8 mph /  7.7 km/h 78 % 0.0 in /  0 mm
04:37 17.1 °F /  -8.3 °C 13.2 °F /  -10.4 °C 1016.1 in /  34405.1 hPa NE 3.2 mph /  5.1 km/h 4.8 mph /  7.7 km/h 78 % 0.0 in /  0 mm
04:42 17.2 °F /  -8.2 °C 13.3 °F /  -10.4 °C 1016.1 in /  34405.1 hPa Calm   6.4 mph /  10.3 km/h 78 % 0.0 in /  0 mm
04:47 17.3 °F /  -8.2 °C 13.4 °F /  -10.3 °C 1016.1 in /  34405.1 hPa NE 3.2 mph /  5.1 km/h 9.7 mph /  15.6 km/h 78 % 0.0 in /  0 mm
04:52 17.3 °F /  -8.2 °C 13.4 °F /  -10.3 °C 1016.1 in /  34405.1 hPa NNE 1.6 mph /  2.6 km/h 9.7 mph /  15.6 km/h 78 % 0.0 in /  0 mm
04:57 17.3 °F /  -8.2 °C 13.2 °F /  -10.4 °C 1016.1 in /  34405.1 hPa North 4.8 mph /  7.7 km/h 9.7 mph /  15.6 km/h 77 % 0.0 in /  0 mm
05:02 17.4 °F /  -8.1 °C 13.3 °F /  -10.4 °C 1016.1 in /  34405.1 hPa Calm   9.7 mph /  15.6 km/h 77 % 0.0 in /  0 mm
05:12 17.3 °F /  -8.2 °C 13.2 °F /  -10.4 °C 1016.1 in /  34405.1 hPa Calm   6.4 mph /  10.3 km/h 77 % 0.0 in /  0 mm
05:17 17.3 °F /  -8.2 °C 13.4 °F /  -10.3 °C 1016.1 in /  34405.1 hPa NNE 1.6 mph /  2.6 km/h 4.8 mph /  7.7 km/h 78 % 0.0 in /  0 mm
05:22 17.3 °F /  -8.2 °C 13.2 °F /  -10.4 °C 1016.1 in /  34405.1 hPa Calm   3.2 mph /  5.1 km/h 77 % 0.0 in /  0 mm
05:27 17.3 °F /  -8.2 °C 13.4 °F /  -10.3 °C 1016.1 in /  34405.1 hPa NNE 3.2 mph /  5.1 km/h 3.2 mph /  5.1 km/h 78 % 0.0 in /  0 mm
05:32 17.3 °F /  -8.2 °C 13.4 °F /  -10.3 °C 1016.1 in /  34405.1 hPa Calm   3.2 mph /  5.1 km/h 78 % 0.0 in /  0 mm
05:37 17.3 °F /  -8.2 °C 13.6 °F /  -10.2 °C 1016.1 in /  34405.1 hPa Calm   6.4 mph /  10.3 km/h 79 % 0.0 in /  0 mm
05:42 17.1 °F /  -8.3 °C 13.6 °F /  -10.2 °C 1016.1 in /  34405.1 hPa Calm   6.4 mph /  10.3 km/h 80 % 0.0 in /  0 mm
05:47 17.1 °F /  -8.3 °C 13.4 °F /  -10.3 °C 1016.1 in /  34405.1 hPa NNE 1.6 mph /  2.6 km/h 6.4 mph /  10.3 km/h 79 % 0.0 in /  0 mm
05:52 17.0 °F /  -8.3 °C 13.3 °F /  -10.4 °C 1016.1 in /  34405.1 hPa NE 3.2 mph /  5.1 km/h 3.2 mph /  5.1 km/h 79 % 0.0 in /  0 mm
05:57 17.1 °F /  -8.3 °C 13.4 °F /  -10.3 °C 1016.1 in /  34405.1 hPa NNW 1.6 mph /  2.6 km/h 3.2 mph /  5.1 km/h 79 % 0.0 in /  0 mm
06:02 17.1 °F /  -8.3 °C 13.4 °F /  -10.3 °C 1016.5 in /  34418.7 hPa NE 1.6 mph /  2.6 km/h 6.4 mph /  10.3 km/h 79 % 0.0 in /  0 mm
06:12 17.2 °F /  -8.2 °C 13.3 °F /  -10.4 °C 1016.5 in /  34418.7 hPa NNE 4.8 mph /  7.7 km/h 6.4 mph /  10.3 km/h 78 % 0.0 in /  0 mm
06:22 17.1 °F /  -8.3 °C 13.4 °F /  -10.3 °C 1016.5 in /  34418.7 hPa ENE 1.6 mph /  2.6 km/h 9.7 mph /  15.6 km/h 79 % 0.0 in /  0 mm
06:27 16.9 °F /  -8.4 °C 13.4 °F /  -10.3 °C 1016.5 in /  34418.7 hPa NNE 4.8 mph /  7.7 km/h 9.7 mph /  15.6 km/h 80 % 0.0 in /  0 mm
06:32 16.8 °F /  -8.4 °C 13.5 °F /  -10.3 °C 1016.5 in /  34418.7 hPa ENE 1.6 mph /  2.6 km/h 8.0 mph /  12.9 km/h 81 % 0.0 in /  0 mm
06:37 16.9 °F /  -8.4 °C 13.4 °F /  -10.3 °C 1016.5 in /  34418.7 hPa ENE 3.2 mph /  5.1 km/h 8.0 mph /  12.9 km/h 80 % 0.0 in /  0 mm
06:42 16.9 °F /  -8.4 °C 13.4 °F /  -10.3 °C 1016.5 in /  34418.7 hPa ENE 1.6 mph /  2.6 km/h 9.7 mph /  15.6 km/h 80 % 0.0 in /  0 mm
06:52 17.0 °F /  -8.3 °C 13.7 °F /  -10.2 °C 1016.5 in /  34418.7 hPa NE 1.6 mph /  2.6 km/h 9.7 mph /  15.6 km/h 81 % 0.0 in /  0 mm
06:57 17.0 °F /  -8.3 °C 13.7 °F /  -10.2 °C 1016.1 in /  34405.1 hPa ENE 4.8 mph /  7.7 km/h 9.7 mph /  15.6 km/h 81 % 0.0 in /  0 mm
07:02 17.1 °F /  -8.3 °C 13.8 °F /  -10.1 °C 1016.1 in /  34405.1 hPa ENE 6.4 mph /  10.3 km/h 6.4 mph /  10.3 km/h 81 % 0.0 in /  0 mm
07:12 17.4 °F /  -8.1 °C 13.9 °F /  -10.1 °C 1016.1 in /  34405.1 hPa Calm   6.4 mph /  10.3 km/h 80 % 0.0 in /  0 mm
07:17 17.6 °F /  -8 °C 14.1 °F /  -9.9 °C 1016.1 in /  34405.1 hPa Calm   6.4 mph /  10.3 km/h 80 % 0.0 in /  0 mm
07:22 17.7 °F /  -7.9 °C 14.2 °F /  -9.9 °C 1016.1 in /  34405.1 hPa Calm   6.4 mph /  10.3 km/h 80 % 0.0 in /  0 mm
07:27 17.8 °F /  -7.9 °C 14.5 °F /  -9.7 °C 1016.1 in /  34405.1 hPa Calm   4.8 mph /  7.7 km/h 81 % 0.0 in /  0 mm
07:32 17.9 °F /  -7.8 °C 14.6 °F /  -9.7 °C 1016.5 in /  34418.7 hPa Calm   3.2 mph /  5.1 km/h 81 % 0.0 in /  0 mm
07:42 18.2 °F /  -7.7 °C 14.9 °F /  -9.5 °C 1016.5 in /  34418.7 hPa Calm   1.6 mph /  2.6 km/h 81 % 0.0 in /  0 mm
07:52 19.1 °F /  -7.2 °C 15.2 °F /  -9.3 °C 1016.1 in /  34405.1 hPa ENE 3.2 mph /  5.1 km/h 3.2 mph /  5.1 km/h 78 % 0.0 in /  0 mm
07:57 19.2 °F /  -7.1 °C 15.1 °F /  -9.4 °C 1016.1 in /  34405.1 hPa ENE 3.2 mph /  5.1 km/h 3.2 mph /  5.1 km/h 77 % 0.0 in /  0 mm
08:02 19.4 °F /  -7 °C 14.9 °F /  -9.5 °C 1016.1 in /  34405.1 hPa East 1.6 mph /  2.6 km/h 4.8 mph /  7.7 km/h 75 % 0.0 in /  0 mm
08:12 19.7 °F /  -6.8 °C 15.3 °F /  -9.3 °C 1016.1 in /  34405.1 hPa NE 4.8 mph /  7.7 km/h 6.4 mph /  10.3 km/h 76 % 0.0 in /  0 mm
08:17 19.6 °F /  -6.9 °C 15.3 °F /  -9.3 °C 1016.1 in /  34405.1 hPa NE 4.8 mph /  7.7 km/h 8.0 mph /  12.9 km/h 76 % 0.0 in /  0 mm
08:27 19.8 °F /  -6.8 °C 15.2 °F /  -9.3 °C 1016.1 in /  34405.1 hPa NNW 3.2 mph /  5.1 km/h 8.0 mph /  12.9 km/h 75 % 0.0 in /  0 mm
08:32 19.9 °F /  -6.7 °C 15.1 °F /  -9.4 °C 1016.1 in /  34405.1 hPa ENE 4.8 mph /  7.7 km/h 8.0 mph /  12.9 km/h 74 % 0.0 in /  0 mm
08:37 20.2 °F /  -6.6 °C 15.4 °F /  -9.2 °C 1016.1 in /  34405.1 hPa ENE 8.0 mph /  12.9 km/h 9.7 mph /  15.6 km/h 74 % 0.0 in /  0 mm
08:42 20.3 °F /  -6.5 °C 15.3 °F /  -9.3 °C 1016.5 in /  34418.7 hPa ENE 4.8 mph /  7.7 km/h 9.7 mph /  15.6 km/h 73 % 0.0 in /  0 mm
08:47 20.5 °F /  -6.4 °C 15.5 °F /  -9.2 °C 1016.1 in /  34405.1 hPa ENE 6.4 mph /  10.3 km/h 11.3 mph /  18.2 km/h 73 % 0.0 in /  0 mm
08:52 20.4 °F /  -6.4 °C 15.4 °F /  -9.2 °C 1016.1 in /  34405.1 hPa NNE 3.2 mph /  5.1 km/h 11.3 mph /  18.2 km/h 73 % 0.0 in /  0 mm
08:57 20.4 °F /  -6.4 °C 15.4 °F /  -9.2 °C 1016.1 in /  34405.1 hPa NE 4.8 mph /  7.7 km/h 12.9 mph /  20.8 km/h 73 % 0.0 in /  0 mm
09:02 20.3 °F /  -6.5 °C 15.5 °F /  -9.2 °C 1016.1 in /  34405.1 hPa NE 3.2 mph /  5.1 km/h 12.9 mph /  20.8 km/h 74 % 0.0 in /  0 mm
09:07 20.3 °F /  -6.5 °C 15.3 °F /  -9.3 °C 1016.1 in /  34405.1 hPa ENE 4.8 mph /  7.7 km/h 12.9 mph /  20.8 km/h 73 % 0.0 in /  0 mm
09:12 20.4 °F /  -6.4 °C 15.6 °F /  -9.1 °C 1016.1 in /  34405.1 hPa ENE 8.0 mph /  12.9 km/h 9.7 mph /  15.6 km/h 74 % 0.0 in /  0 mm
09:17 20.6 °F /  -6.3 °C 15.8 °F /  -9 °C 1016.1 in /  34405.1 hPa ENE 8.0 mph /  12.9 km/h 9.7 mph /  15.6 km/h 74 % 0.0 in /  0 mm
09:22 20.8 °F /  -6.2 °C 15.8 °F /  -9 °C 1016.1 in /  34405.1 hPa NE 8.0 mph /  12.9 km/h 9.7 mph /  15.6 km/h 73 % 0.0 in /  0 mm
09:32 21.1 °F /  -6.1 °C 16.1 °F /  -8.8 °C 1016.5 in /  34418.7 hPa ENE 9.7 mph /  15.6 km/h 12.9 mph /  20.8 km/h 73 % 0.0 in /  0 mm
09:42 21.3 °F /  -5.9 °C 16.3 °F /  -8.7 °C 1016.1 in /  34405.1 hPa NE 6.4 mph /  10.3 km/h 12.9 mph /  20.8 km/h 73 % 0.0 in /  0 mm
09:47 21.7 °F /  -5.7 °C 16.2 °F /  -8.8 °C 1016.1 in /  34405.1 hPa ENE 14.5 mph /  23.3 km/h 14.5 mph /  23.3 km/h 71 % 0.0 in /  0 mm
09:52 22.0 °F /  -5.6 °C 16.3 °F /  -8.7 °C 1016.1 in /  34405.1 hPa ENE 12.9 mph /  20.8 km/h 17.7 mph /  28.5 km/h 70 % 0.0 in /  0 mm
09:57 22.2 °F /  -5.4 °C 16.2 °F /  -8.8 °C 1016.1 in /  34405.1 hPa ENE 4.8 mph /  7.7 km/h 17.7 mph /  28.5 km/h 69 % 0.0 in /  0 mm
10:02 22.3 °F /  -5.4 °C 16.3 °F /  -8.7 °C 1016.1 in /  34405.1 hPa ENE 8.0 mph /  12.9 km/h 17.7 mph /  28.5 km/h 69 % 0.0 in /  0 mm
10:07 22.6 °F /  -5.2 °C 16.4 °F /  -8.7 °C 1016.1 in /  34405.1 hPa ENE 8.0 mph /  12.9 km/h 16.1 mph /  25.9 km/h 68 % 0.0 in /  0 mm
10:12 22.9 °F /  -5.1 °C 16.9 °F /  -8.4 °C 1016.5 in /  34418.7 hPa NNE 4.8 mph /  7.7 km/h 16.1 mph /  25.9 km/h 69 % 0.0 in /  0 mm
10:22 23.1 °F /  -4.9 °C 16.6 °F /  -8.6 °C 1016.5 in /  34418.7 hPa East 6.4 mph /  10.3 km/h 14.5 mph /  23.3 km/h 67 % 0.0 in /  0 mm
10:27 23.2 °F /  -4.9 °C 16.7 °F /  -8.5 °C 1016.5 in /  34418.7 hPa ENE 3.2 mph /  5.1 km/h 12.9 mph /  20.8 km/h 67 % 0.0 in /  0 mm
10:32 23.3 °F /  -4.8 °C 16.6 °F /  -8.6 °C 1016.5 in /  34418.7 hPa East 4.8 mph /  7.7 km/h 11.3 mph /  18.2 km/h 66 % 0.0 in /  0 mm
10:37 23.5 °F /  -4.7 °C 17.3 °F /  -8.2 °C 1016.5 in /  34418.7 hPa ENE 4.8 mph /  7.7 km/h 11.3 mph /  18.2 km/h 68 % 0.0 in /  0 mm
10:42 23.8 °F /  -4.6 °C 17.1 °F /  -8.3 °C 1016.5 in /  34418.7 hPa East 8.0 mph /  12.9 km/h 11.3 mph /  18.2 km/h 66 % 0.0 in /  0 mm
10:47 23.9 °F /  -4.5 °C 17.2 °F /  -8.2 °C 1016.1 in /  34405.1 hPa East 8.0 mph /  12.9 km/h 11.3 mph /  18.2 km/h 66 % 0.0 in /  0 mm
10:52 23.9 °F /  -4.5 °C 17.2 °F /  -8.2 °C 1016.1 in /  34405.1 hPa East 6.4 mph /  10.3 km/h 17.7 mph /  28.5 km/h 66 % 0.0 in /  0 mm
10:57 24.0 °F /  -4.4 °C 17.3 °F /  -8.2 °C 1016.5 in /  34418.7 hPa ENE 11.3 mph /  18.2 km/h 17.7 mph /  28.5 km/h 66 % 0.0 in /  0 mm
11:02 24.1 °F /  -4.4 °C 17.6 °F /  -8 °C 1016.5 in /  34418.7 hPa East 9.7 mph /  15.6 km/h 17.7 mph /  28.5 km/h 67 % 0.0 in /  0 mm
11:12 24.4 °F /  -4.2 °C 17.9 °F /  -7.8 °C 1016.5 in /  34418.7 hPa NE 3.2 mph /  5.1 km/h 19.3 mph /  31.1 km/h 67 % 0.0 in /  0 mm
11:17 24.5 °F /  -4.2 °C 17.7 °F /  -7.9 °C 1016.5 in /  34418.7 hPa ENE 8.0 mph /  12.9 km/h 19.3 mph /  31.1 km/h 66 % 0.0 in /  0 mm
11:22 24.4 °F /  -4.2 °C 17.9 °F /  -7.8 °C 1016.5 in /  34418.7 hPa ENE 3.2 mph /  5.1 km/h 14.5 mph /  23.3 km/h 67 % 0.0 in /  0 mm
11:32 24.6 °F /  -4.1 °C 18.1 °F /  -7.7 °C 1016.1 in /  34405.1 hPa ENE 8.0 mph /  12.9 km/h 12.9 mph /  20.8 km/h 67 % 0.0 in /  0 mm
11:42 24.4 °F /  -4.2 °C 17.9 °F /  -7.8 °C 1016.5 in /  34418.7 hPa ENE 3.2 mph /  5.1 km/h 11.3 mph /  18.2 km/h 67 % 0.0 in /  0 mm
11:47 24.4 °F /  -4.2 °C 18.3 °F /  -7.6 °C 1016.5 in /  34418.7 hPa ENE 1.6 mph /  2.6 km/h 12.9 mph /  20.8 km/h 69 % 0.0 in /  0 mm
11:52 24.6 °F /  -4.1 °C 18.5 °F /  -7.5 °C 1016.5 in /  34418.7 hPa East 3.2 mph /  5.1 km/h 12.9 mph /  20.8 km/h 69 % 0.0 in /  0 mm
12:02 24.6 °F /  -4.1 °C 18.3 °F /  -7.6 °C 1016.5 in /  34418.7 hPa ENE 4.8 mph /  7.7 km/h 9.7 mph /  15.6 km/h 68 % 0.0 in /  0 mm
12:12 24.6 °F /  -4.1 °C 18.8 °F /  -7.3 °C 1016.5 in /  34418.7 hPa East 3.2 mph /  5.1 km/h 9.7 mph /  15.6 km/h 70 % 0.0 in /  0 mm
12:17 24.5 °F /  -4.2 °C 18.2 °F /  -7.7 °C 1016.5 in /  34418.7 hPa ENE 4.8 mph /  7.7 km/h 9.7 mph /  15.6 km/h 68 % 0.0 in /  0 mm
12:22 24.5 °F /  -4.2 °C 18.2 °F /  -7.7 °C 1016.5 in /  34418.7 hPa ENE 4.8 mph /  7.7 km/h 9.7 mph /  15.6 km/h 68 % 0.0 in /  0 mm
12:27 24.6 °F /  -4.1 °C 18.5 °F /  -7.5 °C 1016.5 in /  34418.7 hPa ENE 4.8 mph /  7.7 km/h 9.7 mph /  15.6 km/h 69 % 0.0 in /  0 mm
12:32 24.6 °F /  -4.1 °C 18.3 °F /  -7.6 °C 1016.5 in /  34418.7 hPa East 3.2 mph /  5.1 km/h 9.7 mph /  15.6 km/h 68 % 0.0 in /  0 mm
12:42 24.7 °F /  -4.1 °C 18.4 °F /  -7.6 °C 1016.5 in /  34418.7 hPa ENE 6.4 mph /  10.3 km/h 6.4 mph /  10.3 km/h 68 % 0.0 in /  0 mm
12:47 24.8 °F /  -4 °C 18.5 °F /  -7.5 °C 1016.1 in /  34405.1 hPa East 6.4 mph /  10.3 km/h 8.0 mph /  12.9 km/h 68 % 0.0 in /  0 mm
12:52 24.9 °F /  -3.9 °C 18.3 °F /  -7.6 °C 1016.1 in /  34405.1 hPa ENE 3.2 mph /  5.1 km/h 8.0 mph /  12.9 km/h 67 % 0.0 in /  0 mm
12:57 25.1 °F /  -3.8 °C 18.5 °F /  -7.5 °C 1016.1 in /  34405.1 hPa ENE 1.6 mph /  2.6 km/h 8.0 mph /  12.9 km/h 67 % 0.0 in /  0 mm
13:02 25.2 °F /  -3.8 °C 18.4 °F /  -7.6 °C 1016.1 in /  34405.1 hPa NE 6.4 mph /  10.3 km/h 9.7 mph /  15.6 km/h 66 % 0.0 in /  0 mm
13:07 25.2 °F /  -3.8 °C 18.4 °F /  -7.6 °C 1016.1 in /  34405.1 hPa ENE 6.4 mph /  10.3 km/h 11.3 mph /  18.2 km/h 66 % 0.0 in /  0 mm
13:12 25.3 °F /  -3.7 °C 18.7 °F /  -7.4 °C 1016.1 in /  34405.1 hPa NNW 4.8 mph /  7.7 km/h 11.3 mph /  18.2 km/h 67 % 0.0 in /  0 mm
13:17 25.5 °F /  -3.6 °C 18.4 °F /  -7.6 °C 1016.1 in /  34405.1 hPa NE 6.4 mph /  10.3 km/h 11.3 mph /  18.2 km/h 65 % 0.0 in /  0 mm
13:22 25.6 °F /  -3.6 °C 18.5 °F /  -7.5 °C 1016.1 in /  34405.1 hPa ENE 8.0 mph /  12.9 km/h 12.9 mph /  20.8 km/h 65 % 0.0 in /  0 mm
13:32 25.9 °F /  -3.4 °C 18.6 °F /  -7.4 °C 1016.1 in /  34405.1 hPa ENE 11.3 mph /  18.2 km/h 12.9 mph /  20.8 km/h 64 % 0.0 in /  0 mm
13:37 25.9 °F /  -3.4 °C 18.6 °F /  -7.4 °C 1016.1 in /  34405.1 hPa ENE 4.8 mph /  7.7 km/h 17.7 mph /  28.5 km/h 64 % 0.0 in /  0 mm
13:42 26.1 °F /  -3.3 °C 18.8 °F /  -7.3 °C 1016.1 in /  34405.1 hPa East 11.3 mph /  18.2 km/h 17.7 mph /  28.5 km/h 64 % 0.0 in /  0 mm
13:52 26.3 °F /  -3.2 °C 18.9 °F /  -7.3 °C 1015.8 in /  34395 hPa North 3.2 mph /  5.1 km/h 14.5 mph /  23.3 km/h 64 % 0.0 in /  0 mm
13:57 26.2 °F /  -3.2 °C 18.8 °F /  -7.3 °C 1015.8 in /  34395 hPa NE 4.8 mph /  7.7 km/h 14.5 mph /  23.3 km/h 64 % 0.0 in /  0 mm
14:02 26.2 °F /  -3.2 °C 18.6 °F /  -7.4 °C 1016.1 in /  34405.1 hPa North 3.2 mph /  5.1 km/h 12.9 mph /  20.8 km/h 63 % 0.0 in /  0 mm
14:07 26.3 °F /  -3.2 °C 18.7 °F /  -7.4 °C 1016.1 in /  34405.1 hPa ENE 6.4 mph /  10.3 km/h 12.9 mph /  20.8 km/h 63 % 0.0 in /  0 mm
14:12 26.2 °F /  -3.2 °C 18.6 °F /  -7.4 °C 1016.1 in /  34405.1 hPa NNE 4.8 mph /  7.7 km/h 12.9 mph /  20.8 km/h 63 % 0.0 in /  0 mm
14:22 26.3 °F /  -3.2 °C 18.7 °F /  -7.4 °C 1015.8 in /  34395 hPa ENE 8.0 mph /  12.9 km/h 14.5 mph /  23.3 km/h 63 % 0.0 in /  0 mm
14:27 26.3 °F /  -3.2 °C 19.2 °F /  -7.1 °C 1015.8 in /  34395 hPa NE 9.7 mph /  15.6 km/h 14.5 mph /  23.3 km/h 65 % 0.0 in /  0 mm
14:32 26.5 °F /  -3.1 °C 19.1 °F /  -7.2 °C 1015.8 in /  34395 hPa NE 4.8 mph /  7.7 km/h 14.5 mph /  23.3 km/h 64 % 0.0 in /  0 mm
14:37 26.7 °F /  -2.9 °C 19.1 °F /  -7.2 °C 1015.8 in /  34395 hPa NE 3.2 mph /  5.1 km/h 14.5 mph /  23.3 km/h 63 % 0.0 in /  0 mm
14:42 26.8 °F /  -2.9 °C 19.2 °F /  -7.1 °C 1015.8 in /  34395 hPa North 6.4 mph /  10.3 km/h 14.5 mph /  23.3 km/h 63 % 0.0 in /  0 mm
14:47 26.8 °F /  -2.9 °C 19.2 °F /  -7.1 °C 1015.8 in /  34395 hPa NNE 8.0 mph /  12.9 km/h 16.1 mph /  25.9 km/h 63 % 0.0 in /  0 mm
14:52 26.8 °F /  -2.9 °C 19.2 °F /  -7.1 °C 1015.8 in /  34395 hPa NNE 6.4 mph /  10.3 km/h 16.1 mph /  25.9 km/h 63 % 0.0 in /  0 mm
14:57 26.8 °F /  -2.9 °C 19.2 °F /  -7.1 °C 1015.8 in /  34395 hPa NE 4.8 mph /  7.7 km/h 16.1 mph /  25.9 km/h 63 % 0.0 in /  0 mm
15:02 26.9 °F /  -2.8 °C 19.3 °F /  -7.1 °C 1015.8 in /  34395 hPa ENE 6.4 mph /  10.3 km/h 11.3 mph /  18.2 km/h 63 % 0.0 in /  0 mm
15:07 26.9 °F /  -2.8 °C 19.3 °F /  -7.1 °C 1015.8 in /  34395 hPa East 3.2 mph /  5.1 km/h 12.9 mph /  20.8 km/h 63 % 0.0 in /  0 mm
15:12 26.9 °F /  -2.8 °C 19.3 °F /  -7.1 °C 1015.8 in /  34395 hPa ENE 6.4 mph /  10.3 km/h 12.9 mph /  20.8 km/h 63 % 0.0 in /  0 mm
15:17 26.9 °F /  -2.8 °C 19.0 °F /  -7.2 °C 1015.8 in /  34395 hPa ENE 3.2 mph /  5.1 km/h 12.9 mph /  20.8 km/h 62 % 0.0 in /  0 mm
15:22 26.9 °F /  -2.8 °C 19.0 °F /  -7.2 °C 1015.8 in /  34395 hPa ENE 4.8 mph /  7.7 km/h 9.7 mph /  15.6 km/h 62 % 0.0 in /  0 mm
15:27 26.9 °F /  -2.8 °C 19.3 °F /  -7.1 °C 1015.8 in /  34395 hPa ENE 6.4 mph /  10.3 km/h 14.5 mph /  23.3 km/h 63 % 0.0 in /  0 mm
15:32 26.9 °F /  -2.8 °C 18.7 °F /  -7.4 °C 1015.8 in /  34395 hPa East 3.2 mph /  5.1 km/h 14.5 mph /  23.3 km/h 61 % 0.0 in /  0 mm
15:37 27.0 °F /  -2.8 °C 19.1 °F /  -7.2 °C 1015.8 in /  34395 hPa ENE 1.6 mph /  2.6 km/h 14.5 mph /  23.3 km/h 62 % 0.0 in /  0 mm
15:42 27.1 °F /  -2.7 °C 18.9 °F /  -7.3 °C 1015.8 in /  34395 hPa NE 3.2 mph /  5.1 km/h 9.7 mph /  15.6 km/h 61 % 0.0 in /  0 mm
15:47 27.0 °F /  -2.8 °C 18.6 °F /  -7.4 °C 1015.8 in /  34395 hPa NNE 6.4 mph /  10.3 km/h 8.0 mph /  12.9 km/h 60 % 0.0 in /  0 mm
15:52 27.1 °F /  -2.7 °C 18.7 °F /  -7.4 °C 1015.8 in /  34395 hPa ENE 3.2 mph /  5.1 km/h 9.7 mph /  15.6 km/h 60 % 0.0 in /  0 mm
15:57 27.2 °F /  -2.7 °C 19.0 °F /  -7.2 °C 1015.8 in /  34395 hPa ENE 1.6 mph /  2.6 km/h 9.7 mph /  15.6 km/h 61 % 0.0 in /  0 mm
16:02 27.3 °F /  -2.6 °C 18.9 °F /  -7.3 °C 1015.8 in /  34395 hPa ENE 3.2 mph /  5.1 km/h 8.0 mph /  12.9 km/h 60 % 0.0 in /  0 mm
16:12 27.1 °F /  -2.7 °C 18.9 °F /  -7.3 °C 1015.8 in /  34395 hPa East 1.6 mph /  2.6 km/h 8.0 mph /  12.9 km/h 61 % 0.0 in /  0 mm
16:17 27.3 °F /  -2.6 °C 19.6 °F /  -6.9 °C 1015.8 in /  34395 hPa ENE 3.2 mph /  5.1 km/h 8.0 mph /  12.9 km/h 63 % 0.0 in /  0 mm
16:22 27.1 °F /  -2.7 °C 18.7 °F /  -7.4 °C 1015.8 in /  34395 hPa Calm   8.0 mph /  12.9 km/h 60 % 0.0 in /  0 mm
16:32 27.3 °F /  -2.6 °C 18.6 °F /  -7.4 °C 1015.5 in /  34384.8 hPa Calm   8.0 mph /  12.9 km/h 59 % 0.0 in /  0 mm
16:37 27.3 °F /  -2.6 °C 18.9 °F /  -7.3 °C 1015.5 in /  34384.8 hPa Calm   4.8 mph /  7.7 km/h 60 % 0.0 in /  0 mm
16:42 27.4 °F /  -2.6 °C 19.2 °F /  -7.1 °C 1015.5 in /  34384.8 hPa NE 4.8 mph /  7.7 km/h 4.8 mph /  7.7 km/h 61 % 0.0 in /  0 mm
16:47 27.0 °F /  -2.8 °C 19.1 °F /  -7.2 °C 1015.5 in /  34384.8 hPa ENE 3.2 mph /  5.1 km/h 11.3 mph /  18.2 km/h 62 % 0.0 in /  0 mm
16:52 26.9 °F /  -2.8 °C 19.5 °F /  -6.9 °C 1015.5 in /  34384.8 hPa NNE 6.4 mph /  10.3 km/h 11.3 mph /  18.2 km/h 64 % 0.0 in /  0 mm
16:57 26.8 °F /  -2.9 °C 19.7 °F /  -6.8 °C 1015.5 in /  34384.8 hPa North 6.4 mph /  10.3 km/h 11.3 mph /  18.2 km/h 65 % 0.0 in /  0 mm
17:02 26.7 °F /  -2.9 °C 19.8 °F /  -6.8 °C 1015.5 in /  34384.8 hPa NNE 8.0 mph /  12.9 km/h 11.3 mph /  18.2 km/h 66 % 0.0 in /  0 mm
17:12 26.7 °F /  -2.9 °C 19.6 °F /  -6.9 °C 1015.1 in /  34371.3 hPa NE 8.0 mph /  12.9 km/h 9.7 mph /  15.6 km/h 65 % 0.0 in /  0 mm
17:17 26.7 °F /  -2.9 °C 19.6 °F /  -6.9 °C 1015.1 in /  34371.3 hPa NE 1.6 mph /  2.6 km/h 11.3 mph /  18.2 km/h 65 % 0.0 in /  0 mm
17:22 26.7 °F /  -2.9 °C 19.3 °F /  -7.1 °C 1015.1 in /  34371.3 hPa NE 1.6 mph /  2.6 km/h 11.3 mph /  18.2 km/h 64 % 0.0 in /  0 mm
17:32 26.7 °F /  -2.9 °C 19.6 °F /  -6.9 °C 1015.1 in /  34371.3 hPa NE 8.0 mph /  12.9 km/h 11.3 mph /  18.2 km/h 65 % 0.0 in /  0 mm
17:42 26.9 °F /  -2.8 °C 19.5 °F /  -6.9 °C 1015.1 in /  34371.3 hPa East 8.0 mph /  12.9 km/h 9.7 mph /  15.6 km/h 64 % 0.0 in /  0 mm
17:52 27.0 °F /  -2.8 °C 19.1 °F /  -7.2 °C 1015.1 in /  34371.3 hPa NE 1.6 mph /  2.6 km/h 11.3 mph /  18.2 km/h 62 % 0.0 in /  0 mm
17:57 27.1 °F /  -2.7 °C 19.2 °F /  -7.1 °C 1014.8 in /  34361.1 hPa NE 4.8 mph /  7.7 km/h 11.3 mph /  18.2 km/h 62 % 0.0 in /  0 mm
18:02 27.3 °F /  -2.6 °C 19.4 °F /  -7 °C 1014.8 in /  34361.1 hPa ENE 4.8 mph /  7.7 km/h 11.3 mph /  18.2 km/h 62 % 0.0 in /  0 mm
18:07 27.2 °F /  -2.7 °C 19.3 °F /  -7.1 °C 1014.8 in /  34361.1 hPa NE 3.2 mph /  5.1 km/h 11.3 mph /  18.2 km/h 62 % 0.0 in /  0 mm
18:12 27.2 °F /  -2.7 °C 18.8 °F /  -7.3 °C 1014.8 in /  34361.1 hPa Calm   11.3 mph /  18.2 km/h 60 % 0.0 in /  0 mm
18:17 27.3 °F /  -2.6 °C 18.9 °F /  -7.3 °C 1014.4 in /  34347.6 hPa Calm   11.3 mph /  18.2 km/h 60 % 0.0 in /  0 mm
18:22 27.9 °F /  -2.3 °C 19.4 °F /  -7 °C 1014.4 in /  34347.6 hPa SE 1.6 mph /  2.6 km/h 11.3 mph /  18.2 km/h 60 % 0.0 in /  0 mm
18:27 27.9 °F /  -2.3 °C 18.9 °F /  -7.3 °C 1014.4 in /  34347.6 hPa ENE 4.8 mph /  7.7 km/h 6.4 mph /  10.3 km/h 58 % 0.0 in /  0 mm
18:32 27.8 °F /  -2.3 °C 19.1 °F /  -7.2 °C 1014.4 in /  34347.6 hPa ESE 1.6 mph /  2.6 km/h 8.0 mph /  12.9 km/h 59 % 0.0 in /  0 mm
18:42 28.4 °F /  -2 °C 19.3 °F /  -7.1 °C 1014.8 in /  34361.1 hPa North 3.2 mph /  5.1 km/h 8.0 mph /  12.9 km/h 58 % 0.0 in /  0 mm
18:52 28.2 °F /  -2.1 °C 19.4 °F /  -7 °C 1014.8 in /  34361.1 hPa East 3.2 mph /  5.1 km/h 9.7 mph /  15.6 km/h 59 % 0.0 in /  0 mm
19:02 27.9 °F /  -2.3 °C 19.4 °F /  -7 °C 1014.8 in /  34361.1 hPa ENE 6.4 mph /  10.3 km/h 12.9 mph /  20.8 km/h 60 % 0.0 in /  0 mm
19:12 27.6 °F /  -2.4 °C 19.7 °F /  -6.8 °C 1015.1 in /  34371.3 hPa ENE 3.2 mph /  5.1 km/h 11.3 mph /  18.2 km/h 62 % 0.0 in /  0 mm
19:17 27.6 °F /  -2.4 °C 19.9 °F /  -6.7 °C 1015.1 in /  34371.3 hPa East 3.2 mph /  5.1 km/h 9.7 mph /  15.6 km/h 63 % 0.0 in /  0 mm
19:22 27.7 °F /  -2.4 °C 20.0 °F /  -6.7 °C 1015.1 in /  34371.3 hPa ENE 4.8 mph /  7.7 km/h 9.7 mph /  15.6 km/h 63 % 0.0 in /  0 mm
19:27 27.6 °F /  -2.4 °C 19.7 °F /  -6.8 °C 1015.1 in /  34371.3 hPa East 1.6 mph /  2.6 km/h 9.7 mph /  15.6 km/h 62 % 0.0 in /  0 mm
19:32 27.8 °F /  -2.3 °C 19.8 °F /  -6.8 °C 1015.5 in /  34384.8 hPa ENE 1.6 mph /  2.6 km/h 9.7 mph /  15.6 km/h 62 % 0.0 in /  0 mm
19:37 27.9 °F /  -2.3 °C 19.7 °F /  -6.8 °C 1015.5 in /  34384.8 hPa SE 1.6 mph /  2.6 km/h 8.0 mph /  12.9 km/h 61 % 0.0 in /  0 mm
19:47 28.4 °F /  -2 °C 19.9 °F /  -6.7 °C 1015.5 in /  34384.8 hPa Calm   3.2 mph /  5.1 km/h 60 % 0.0 in /  0 mm
19:52 28.8 °F /  -1.8 °C 20.3 °F /  -6.5 °C 1015.5 in /  34384.8 hPa Calm   3.2 mph /  5.1 km/h 60 % 0.0 in /  0 mm
19:57 28.7 °F /  -1.8 °C 20.2 °F /  -6.6 °C 1015.5 in /  34384.8 hPa Calm   1.6 mph /  2.6 km/h 60 % 0.0 in /  0 mm
20:02 28.5 °F /  -1.9 °C 20.0 °F /  -6.7 °C 1015.5 in /  34384.8 hPa Calm   3.2 mph /  5.1 km/h 60 % 0.0 in /  0 mm
20:07 28.7 °F /  -1.8 °C 20.2 °F /  -6.6 °C 1015.5 in /  34384.8 hPa Calm   3.2 mph /  5.1 km/h 60 % 0.0 in /  0 mm
20:12 28.6 °F /  -1.9 °C 20.1 °F /  -6.6 °C 1015.5 in /  34384.8 hPa SSE 1.6 mph /  2.6 km/h 4.8 mph /  7.7 km/h 60 % 0.0 in /  0 mm
20:17 28.3 °F /  -2.1 °C 20.1 °F /  -6.6 °C 1015.5 in /  34384.8 hPa Calm   4.8 mph /  7.7 km/h 61 % 0.0 in /  0 mm
20:22 28.2 °F /  -2.1 °C 20.2 °F /  -6.6 °C 1015.5 in /  34384.8 hPa SE 1.6 mph /  2.6 km/h 4.8 mph /  7.7 km/h 62 % 0.0 in /  0 mm
20:27 28.1 °F /  -2.2 °C 20.4 °F /  -6.4 °C 1015.5 in /  34384.8 hPa Calm   4.8 mph /  7.7 km/h 63 % 0.0 in /  0 mm
20:37 27.4 °F /  -2.6 °C 20.5 °F /  -6.4 °C 1015.5 in /  34384.8 hPa Calm   4.8 mph /  7.7 km/h 66 % 0.0 in /  0 mm
20:42 27.3 °F /  -2.6 °C 20.6 °F /  -6.3 °C 1015.5 in /  34384.8 hPa Calm   4.8 mph /  7.7 km/h 67 % 0.0 in /  0 mm
20:52 27.2 °F /  -2.7 °C 20.8 °F /  -6.2 °C 1015.5 in /  34384.8 hPa Calm   1.6 mph /  2.6 km/h 68 % 0.0 in /  0 mm
20:57 27.1 °F /  -2.7 °C 20.9 °F /  -6.2 °C 1015.5 in /  34384.8 hPa Calm   1.6 mph /  2.6 km/h 69 % 0.0 in /  0 mm
21:02 26.7 °F /  -2.9 °C 20.8 °F /  -6.2 °C 1015.5 in /  34384.8 hPa Calm     70 % 0.0 in /  0 mm
21:07 26.3 °F /  -3.2 °C 20.6 °F /  -6.3 °C 1015.8 in /  34395 hPa ESE 4.8 mph /  7.7 km/h 6.4 mph /  10.3 km/h 71 % 0.0 in /  0 mm
21:12 25.5 °F /  -3.6 °C 20.5 °F /  -6.4 °C 1015.8 in /  34395 hPa ESE 3.2 mph /  5.1 km/h 8.0 mph /  12.9 km/h 74 % 0.0 in /  0 mm
21:17 25.0 °F /  -3.9 °C 20.3 °F /  -6.5 °C 1015.8 in /  34395 hPa Calm   8.0 mph /  12.9 km/h 75 % 0.0 in /  0 mm
21:22 24.8 °F /  -4 °C 20.3 °F /  -6.5 °C 1015.8 in /  34395 hPa Calm   8.0 mph /  12.9 km/h 76 % 0.0 in /  0 mm
21:32 24.3 °F /  -4.3 °C 19.8 °F /  -6.8 °C 1015.8 in /  34395 hPa SE 1.6 mph /  2.6 km/h 6.4 mph /  10.3 km/h 76 % 0.0 in /  0 mm
21:37 24.1 °F /  -4.4 °C 19.8 °F /  -6.8 °C 1015.8 in /  34395 hPa Calm   3.2 mph /  5.1 km/h 77 % 0.0 in /  0 mm
21:42 23.7 °F /  -4.6 °C 19.6 °F /  -6.9 °C 1015.8 in /  34395 hPa Calm   3.2 mph /  5.1 km/h 78 % 0.0 in /  0 mm
21:52 23.3 °F /  -4.8 °C 19.5 °F /  -6.9 °C 1016.1 in /  34405.1 hPa Calm   1.6 mph /  2.6 km/h 79 % 0.0 in /  0 mm
21:57 23.1 °F /  -4.9 °C 19.5 °F /  -6.9 °C 1016.1 in /  34405.1 hPa Calm     80 % 0.0 in /  0 mm
22:02 22.8 °F /  -5.1 °C 19.2 °F /  -7.1 °C 1016.1 in /  34405.1 hPa Calm   1.6 mph /  2.6 km/h 80 % 0.0 in /  0 mm
22:07 22.6 °F /  -5.2 °C 19.2 °F /  -7.1 °C 1016.1 in /  34405.1 hPa Calm   1.6 mph /  2.6 km/h 81 % 0.0 in /  0 mm
22:12 22.4 °F /  -5.3 °C 19.2 °F /  -7.1 °C 1016.1 in /  34405.1 hPa Calm   1.6 mph /  2.6 km/h 82 % 0.0 in /  0 mm
22:17 22.2 °F /  -5.4 °C 19.0 °F /  -7.2 °C 1016.5 in /  34418.7 hPa Calm     82 % 0.0 in /  0 mm
22:22 22.1 °F /  -5.5 °C 19.1 °F /  -7.2 °C 1016.5 in /  34418.7 hPa Calm     83 % 0.0 in /  0 mm
22:32 22.0 °F /  -5.6 °C 19.2 °F /  -7.1 °C 1016.5 in /  34418.7 hPa SW 3.2 mph /  5.1 km/h 4.8 mph /  7.7 km/h 84 % 0.0 in /  0 mm
22:37 21.9 °F /  -5.6 °C 19.1 °F /  -7.2 °C 1016.5 in /  34418.7 hPa SSW 1.6 mph /  2.6 km/h 4.8 mph /  7.7 km/h 84 % 0.0 in /  0 mm
22:42 21.9 °F /  -5.6 °C 19.1 °F /  -7.2 °C 1016.5 in /  34418.7 hPa SSW 1.6 mph /  2.6 km/h 4.8 mph /  7.7 km/h 84 % 0.0 in /  0 mm
22:52 21.6 °F /  -5.8 °C 19.0 °F /  -7.2 °C 1016.5 in /  34418.7 hPa Calm   3.2 mph /  5.1 km/h 85 % 0.0 in /  0 mm
22:57 21.5 °F /  -5.8 °C 18.9 °F /  -7.3 °C 1016.5 in /  34418.7 hPa Calm   3.2 mph /  5.1 km/h 85 % 0.0 in /  0 mm
23:02 21.4 °F /  -5.9 °C 18.8 °F /  -7.3 °C 1016.5 in /  34418.7 hPa Calm   1.6 mph /  2.6 km/h 85 % 0.0 in /  0 mm
23:07 21.3 °F /  -5.9 °C 18.7 °F /  -7.4 °C 1016.5 in /  34418.7 hPa Calm   1.6 mph /  2.6 km/h 85 % 0.0 in /  0 mm
23:12 21.1 °F /  -6.1 °C 18.5 °F /  -7.5 °C 1016.5 in /  34418.7 hPa Calm   1.6 mph /  2.6 km/h 85 % 0.0 in /  0 mm
23:17 20.9 °F /  -6.2 °C 18.5 °F /  -7.5 °C 1016.5 in /  34418.7 hPa Calm   1.6 mph /  2.6 km/h 86 % 0.0 in /  0 mm
23:22 20.8 °F /  -6.2 °C 18.4 °F /  -7.6 °C 1016.5 in /  34418.7 hPa Calm   1.6 mph /  2.6 km/h 86 % 0.0 in /  0 mm
23:32 20.5 °F /  -6.4 °C 18.3 °F /  -7.6 °C 1016.5 in /  34418.7 hPa Calm   1.6 mph /  2.6 km/h 87 % 0.0 in /  0 mm
23:37 20.3 °F /  -6.5 °C 18.2 °F /  -7.7 °C 1016.5 in /  34418.7 hPa Calm   1.6 mph /  2.6 km/h 88 % 0.0 in /  0 mm
23:42 20.2 °F /  -6.6 °C 18.3 °F /  -7.6 °C 1016.5 in /  34418.7 hPa Calm   1.6 mph /  2.6 km/h 89 % 0.0 in /  0 mm
23:47 20.2 °F /  -6.6 °C 18.3 °F /  -7.6 °C 1016.5 in /  34418.7 hPa Calm   1.6 mph /  2.6 km/h 89 % 0.0 in /  0 mm
23:57 20.1 °F /  -6.6 °C 18.2 °F /  -7.7 °C 1016.5 in /  34418.7 hPa Calm     89 % 0.0 in /  0 mm
Meteo18
Compliments of Weather Underground - 4 mb

Script developed by  Jim McMurry - jmcmurry@mwt.net Adapted for the template by  Wim van der Kuil - Leuven-Template.eu

You find our weather info also at:

European Weather Network

Weather Underground

Equipment we use:

Weather-station
Davis Vue

Weather-program
Meteobridge

Weather-server
Raspberry PI 2 B+

Provider
1 and 1

Davis Vue

Meteobridge

Raspberry PI 2 B+

1 and 1